Time;durP1;ratioP1;P1;durP2;ratioP2;P2;SDS_P1;SDS_P2;PMS_P1;PMS_P2;Temp;Humidity;BMP_temperature;BMP_pressure;BME280_temperature;BME280_humidity;BME280_pressure;Samples;Min_cycle;Max_cycle;Signal;HPM_P1;HPM_P2
2021/10/23 00:04:01;;;;;;;9.20;2.97;;;;;;;12.11;55.67;98594.19;8285003;28;20201;-68
2021/10/23 00:08:04;;;;;;;7.93;2.80;;;;;;;12.05;56.13;98596.19;8286033;28;20245;-68
2021/10/23 00:12:07;;;;;;;9.03;2.87;;;;;;;11.85;56.84;98600.41;8285456;28;20264;-70
2021/10/23 00:16:12;;;;;;;8.17;3.07;;;;;;;11.79;56.96;98597.22;8285920;28;20210;-69
2021/10/23 00:20:15;;;;;;;9.70;3.03;;;;;;;12.07;56.33;98607.34;8285981;28;20305;-70
2021/10/23 00:24:18;;;;;;;8.43;2.87;;;;;;;12.23;55.94;98610.19;8285766;28;20208;-69
2021/10/23 00:28:21;;;;;;;7.87;2.93;;;;;;;12.02;56.84;98611.91;8285085;28;20229;-69
2021/10/23 00:32:26;;;;;;;6.37;2.70;;;;;;;11.99;56.90;98612.00;8285485;28;20206;-69
2021/10/23 00:36:29;;;;;;;7.80;2.67;;;;;;;12.22;56.07;98619.75;8284904;28;20220;-68
2021/10/23 00:40:32;;;;;;;8.47;3.53;;;;;;;12.09;56.89;98621.16;8284952;28;20309;-69
2021/10/23 00:44:37;;;;;;;7.43;2.87;;;;;;;11.97;56.79;98617.25;8284777;28;20216;-68
2021/10/23 00:48:41;;;;;;;8.83;3.00;;;;;;;12.15;56.55;98628.69;8284756;28;20531;-68
2021/10/23 00:52:44;;;;;;;8.73;3.53;;;;;;;12.22;56.66;98627.53;8284895;28;20453;-69
2021/10/23 00:56:47;;;;;;;8.30;3.03;;;;;;;12.20;56.50;98623.28;8284995;28;20213;-68
2021/10/23 01:00:50;;;;;;;9.07;3.00;;;;;;;12.02;57.27;98624.88;8284908;28;20201;-69
2021/10/23 01:04:56;;;;;;;8.00;3.07;;;;;;;12.20;56.80;98628.47;8252367;28;20277;-69
2021/10/23 01:09:00;;;;;;;9.23;3.30;;;;;;;12.20;57.14;98634.50;8252335;28;20537;-68
2021/10/23 01:13:03;;;;;;;8.07;3.03;;;;;;;12.24;57.70;98641.28;8252748;28;20519;-70
2021/10/23 01:17:06;;;;;;;7.40;3.00;;;;;;;12.21;58.18;98638.81;8252471;28;20206;-69
2021/10/23 01:21:10;;;;;;;7.67;3.13;;;;;;;12.03;59.74;98648.19;8252251;28;20212;-70
2021/10/23 01:25:13;;;;;;;8.40;3.20;;;;;;;12.26;58.94;98641.22;8252001;28;20202;-70
2021/10/23 01:29:18;;;;;;;9.30;3.10;;;;;;;12.29;59.12;98647.13;8252079;28;20237;-70
2021/10/23 01:33:24;;;;;;;6.37;2.90;;;;;;;12.07;60.13;98634.19;8252126;28;20207;-70
2021/10/23 01:37:49;;;;;;;6.47;3.13;;;;;;;12.17;59.87;98632.06;8252200;28;20393;-70
2021/10/23 01:41:52;;;;;;;6.87;3.30;;;;;;;12.15;60.07;98636.47;8252456;28;20496;-69
2021/10/23 01:45:55;;;;;;;9.07;3.10;;;;;;;12.09;59.70;98641.91;8252050;28;20224;-69
2021/10/23 01:49:58;;;;;;;9.97;3.23;;;;;;;12.06;59.83;98631.63;8252206;28;20237;-69
2021/10/23 01:54:04;;;;;;;8.70;3.20;;;;;;;12.10;59.70;98644.41;8252102;28;20207;-69
2021/10/23 01:58:07;;;;;;;7.83;3.17;;;;;;;12.25;58.87;98657.72;8251882;28;20213;-69
2021/10/23 02:02:10;;;;;;;7.80;3.27;;;;;;;12.03;59.55;98660.31;8267289;28;20376;-69
2021/10/23 02:06:13;;;;;;;8.87;3.20;;;;;;;12.02;59.89;98663.81;8290203;28;20308;-69
2021/10/23 02:10:20;;;;;;;9.60;3.80;;;;;;;12.06;59.38;98658.44;8290272;28;20233;-69
2021/10/23 02:14:26;;;;;;;8.97;3.63;;;;;;;11.98;59.84;98657.06;8290223;28;20209;-69
2021/10/23 02:18:29;;;;;;;10.47;3.40;;;;;;;12.12;59.45;98657.34;8289553;28;20220;-69
2021/10/23 02:22:32;;;;;;;9.53;3.27;;;;;;;12.09;59.63;98657.50;8289679;28;20233;-69
2021/10/23 02:26:36;;;;;;;7.27;3.33;;;;;;;11.90;60.07;98665.16;8289715;28;20201;-69
2021/10/23 02:30:39;;;;;;;9.00;3.20;;;;;;;11.76;60.17;98663.03;8289343;28;20234;-69
2021/10/23 02:34:43;;;;;;;11.13;3.70;;;;;;;11.73;60.13;98686.50;8289583;28;20201;-69
2021/10/23 02:38:46;;;;;;;9.97;3.53;;;;;;;11.80;59.76;98679.34;8289149;28;20205;-69
2021/10/23 02:42:50;;;;;;;9.83;3.43;;;;;;;11.98;59.17;98672.63;8289069;28;20571;-69
2021/10/23 02:46:53;;;;;;;6.90;3.10;;;;;;;11.95;59.09;98672.75;8289099;28;20370;-69
2021/10/23 02:50:56;;;;;;;10.57;4.10;;;;;;;11.89;59.06;98673.78;8289086;28;20233;-69
2021/10/23 02:54:59;;;;;;;9.47;3.60;;;;;;;11.61;59.79;98682.59;8288867;28;20213;-70
2021/10/23 02:59:03;;;;;;;6.10;3.20;;;;;;;11.82;59.05;98685.31;8288434;28;20206;-69
2021/10/23 03:03:07;;;;;;;7.87;3.60;;;;;;;11.73;59.39;98676.97;8288141;28;20213;-69
2021/10/23 03:07:10;;;;;;;8.60;3.63;;;;;;;11.68;59.39;98681.47;8288472;28;20410;-69
2021/10/23 03:11:13;;;;;;;7.57;3.10;;;;;;;11.70;59.05;98694.41;8287097;28;20240;-69
2021/10/23 03:15:17;;;;;;;9.30;3.77;;;;;;;11.72;59.43;98688.25;8288077;28;20201;-69
2021/10/23 03:19:23;;;;;;;8.17;3.47;;;;;;;11.81;59.07;98681.88;8288298;28;20396;-69
2021/10/23 03:23:26;;;;;;;8.93;3.23;;;;;;;11.72;59.38;98685.66;8287690;28;20212;-69
2021/10/23 03:27:29;;;;;;;9.27;3.10;;;;;;;11.64;59.43;98694.63;8287840;28;20515;-68
2021/10/23 03:31:33;;;;;;;7.80;3.53;;;;;;;11.69;59.85;98701.34;8287657;28;20396;-69
2021/10/23 03:35:36;;;;;;;9.50;3.40;;;;;;;11.73;59.65;98699.50;8287599;28;20504;-69
2021/10/23 03:39:42;;;;;;;6.97;3.33;;;;;;;11.80;59.36;98700.94;8287217;28;20210;-70
2021/10/23 03:43:45;;;;;;;8.03;3.57;;;;;;;12.05;58.92;98694.84;8286984;28;20209;-69
2021/10/23 03:47:49;;;;;;;11.33;3.87;;;;;;;12.11;58.34;98702.41;8287211;28;20288;-70
2021/10/23 03:51:52;;;;;;;10.73;3.87;;;;;;;11.54;60.14;98707.09;8286963;28;20205;-69
2021/10/23 03:55:55;;;;;;;7.73;3.23;;;;;;;11.66;59.74;98718.78;8287072;28;20202;-70
2021/10/23 03:59:58;;;;;;;8.60;3.50;;;;;;;11.72;59.30;98726.31;8286599;28;20213;-70
2021/10/23 04:04:02;;;;;;;9.47;3.20;;;;;;;11.94;58.49;98723.81;8286244;28;20213;-70
2021/10/23 04:08:05;;;;;;;8.57;3.50;;;;;;;11.49;59.65;98728.00;8286699;28;20237;-70
2021/10/23 04:12:08;;;;;;;8.43;3.57;;;;;;;11.66;59.09;98722.22;8286149;28;20271;-70
2021/10/23 04:16:11;;;;;;;7.10;3.13;;;;;;;11.85;58.83;98743.13;8286219;28;20212;-70
2021/10/23 04:20:15;;;;;;;8.37;3.47;;;;;;;11.94;57.91;98752.38;8286107;28;20527;-70
2021/10/23 04:24:18;;;;;;;9.10;3.40;;;;;;;12.02;57.54;98752.09;8285240;28;20201;-70
2021/10/23 04:28:22;;;;;;;10.90;2.93;;;;;;;11.86;58.58;98757.81;8285722;28;20416;-69
2021/10/23 04:32:25;;;;;;;8.60;3.17;;;;;;;11.96;57.55;98752.31;8285689;28;20201;-70
2021/10/23 04:36:30;;;;;;;7.30;3.00;;;;;;;12.14;57.46;98759.41;8285698;28;20201;-69
2021/10/23 04:40:33;;;;;;;9.20;3.20;;;;;;;11.96;57.73;98767.91;8285328;28;20205;-69
2021/10/23 04:44:36;;;;;;;8.27;3.40;;;;;;;11.56;58.52;98775.34;8285442;28;20202;-70
2021/10/23 04:48:38;;;;;;;10.13;4.47;;;;;;;11.44;58.76;98780.94;8285347;28;20244;-69
2021/10/23 04:52:43;;;;;;;10.50;5.10;;;;;;;11.61;58.41;98785.53;8284518;28;20198;-69
2021/10/23 04:56:45;;;;;;;10.63;5.40;;;;;;;11.63;58.29;98774.22;8284131;28;20200;-69
2021/10/23 05:00:48;;;;;;;9.90;6.17;;;;;;;11.49;58.85;98776.44;8284143;28;20500;-69
2021/10/23 05:04:51;;;;;;;13.60;5.63;;;;;;;11.65;58.44;98784.53;8283795;28;20225;-69
2021/10/23 05:08:55;;;;;;;8.53;4.70;;;;;;;11.56;58.06;98785.72;8283698;28;20233;-69
2021/10/23 05:12:58;;;;;;;6.40;3.60;;;;;;;11.82;58.01;98787.38;8283729;28;20493;-69
2021/10/23 05:17:01;;;;;;;7.13;3.20;;;;;;;11.60;58.48;98795.06;8284011;28;20200;-69
2021/10/23 05:21:04;;;;;;;7.13;3.33;;;;;;;11.71;58.03;98786.91;8283838;28;20397;-69
2021/10/23 05:25:09;;;;;;;11.33;3.43;;;;;;;11.76;57.35;98789.34;8281082;28;20201;-69
2021/10/23 05:29:12;;;;;;;8.63;3.30;;;;;;;11.65;57.50;98805.28;8284050;28;20225;-69
2021/10/23 05:33:15;;;;;;;7.07;3.03;;;;;;;11.68;57.24;98800.84;8284199;28;20217;-69
2021/10/23 05:37:19;;;;;;;5.80;3.13;;;;;;;11.58;57.40;98811.59;8290205;28;20432;-70
2021/10/23 05:41:23;;;;;;;8.70;3.37;;;;;;;11.59;57.19;98818.47;8290874;28;20272;-69
2021/10/23 05:45:26;;;;;;;7.33;3.27;;;;;;;11.37;57.74;98821.81;8290924;28;20209;-70
2021/10/23 05:49:29;;;;;;;7.97;3.33;;;;;;;11.47;57.04;98815.41;8290092;28;20402;-69
2021/10/23 05:53:32;;;;;;;7.37;3.40;;;;;;;11.47;56.55;98830.97;8289866;28;20193;-70
2021/10/23 05:57:36;;;;;;;7.40;3.40;;;;;;;11.39;56.48;98835.56;8289765;28;20204;-70
2021/10/23 06:01:39;;;;;;;8.03;3.30;;;;;;;11.27;56.73;98852.41;8289409;28;20201;-69
2021/10/23 06:05:42;;;;;;;7.20;3.20;;;;;;;11.26;56.33;98852.44;8289847;28;20238;-69
2021/10/23 06:09:45;;;;;;;7.47;3.73;;;;;;;11.25;56.35;98851.59;8290098;28;20232;-70
2021/10/23 06:13:50;;;;;;;8.33;3.37;;;;;;;11.14;56.42;98851.94;8289756;28;20201;-69
2021/10/23 06:17:53;;;;;;;7.67;3.70;;;;;;;11.18;56.44;98854.44;8290202;28;20201;-69
2021/10/23 06:21:56;;;;;;;9.43;4.47;;;;;;;11.25;56.26;98861.09;8289951;28;20212;-69
2021/10/23 06:25:59;;;;;;;8.10;5.60;;;;;;;11.33;56.34;98862.56;8289478;28;20202;-69
2021/10/23 06:30:04;;;;;;;8.77;5.23;;;;;;;11.38;56.06;98861.56;8289544;28;20225;-69
2021/10/23 06:34:07;;;;;;;5.93;4.10;;;;;;;11.39;56.43;98856.31;8289638;28;20365;-69
2021/10/23 06:38:10;;;;;;;6.23;4.10;;;;;;;11.35;56.20;98840.00;8289299;28;20205;-69
2021/10/23 06:42:13;;;;;;;10.13;4.03;;;;;;;11.49;55.86;98844.72;8288766;28;20206;-69
2021/10/23 06:46:18;;;;;;;6.73;3.90;;;;;;;11.54;55.98;98861.00;8288215;28;20198;-69
2021/10/23 06:50:21;;;;;;;7.77;3.50;;;;;;;11.56;55.82;98858.34;8288119;28;20225;-69
2021/10/23 06:54:24;;;;;;;9.63;4.20;;;;;;;11.55;55.94;98870.44;8285563;28;20200;-70
2021/10/23 06:58:27;;;;;;;12.03;3.90;;;;;;;11.43;56.19;98883.84;8287776;28;20200;-70
2021/10/23 07:02:39;;;;;;;9.60;3.63;;;;;;;11.65;56.06;98890.91;8287636;28;20547;-70
2021/10/23 07:06:43;;;;;;;9.60;4.37;;;;;;;11.91;55.41;98903.00;8287277;28;20226;-70
2021/10/23 07:10:46;;;;;;;7.73;4.20;;;;;;;12.01;55.44;98906.13;8287422;28;20236;-70
2021/10/23 07:14:50;;;;;;;7.37;3.20;;;;;;;12.05;55.35;98912.91;8287286;28;20198;-70
2021/10/23 07:18:54;;;;;;;7.47;3.50;;;;;;;12.10;54.97;98914.44;8287066;28;20329;-69
2021/10/23 07:22:57;;;;;;;6.50;3.40;;;;;;;12.28;54.66;98928.53;8286878;28;20509;-70
2021/10/23 07:27:01;;;;;;;6.87;3.30;;;;;;;12.38;54.81;98936.84;8287347;28;20202;-70
2021/10/23 07:31:04;;;;;;;7.47;3.20;;;;;;;12.68;53.79;98929.66;8287557;28;20225;-68
2021/10/23 07:35:09;;;;;;;9.37;3.47;;;;;;;13.00;52.61;98944.94;8287518;28;20202;-69
2021/10/23 07:39:14;;;;;;;9.10;3.23;;;;;;;13.35;52.24;98956.59;8287757;28;20209;-68
2021/10/23 07:43:17;;;;;;;5.97;3.23;;;;;;;13.59;51.74;98959.09;8287301;28;20209;-68
2021/10/23 07:47:20;;;;;;;6.57;3.17;;;;;;;13.95;50.79;98974.13;8287089;28;20201;-69
2021/10/23 07:51:24;;;;;;;7.20;3.30;;;;;;;14.43;49.92;98972.91;8287018;28;20543;-69
2021/10/23 07:55:27;;;;;;;55.80;7.10;;;;;;;15.00;49.36;98978.19;8286933;28;20209;-68
2021/10/23 07:59:30;;;;;;;7.77;3.30;;;;;;;15.52;48.69;98986.19;8286187;28;20371;-69
2021/10/23 08:03:33;;;;;;;5.47;3.40;;;;;;;14.71;49.52;98990.81;8286403;28;20202;-69
2021/10/23 08:07:38;;;;;;;6.30;3.33;;;;;;;14.86;48.86;98991.88;8286338;28;20238;-69
2021/10/23 08:11:42;;;;;;;8.20;3.40;;;;;;;15.64;47.65;98990.81;8286272;28;20232;-69
2021/10/23 08:15:46;;;;;;;6.07;2.97;;;;;;;16.24;46.16;98979.19;8286171;28;20208;-69
2021/10/23 08:19:50;;;;;;;7.23;3.07;;;;;;;15.53;46.96;98992.25;8286016;28;20213;-69
2021/10/23 08:23:55;;;;;;;8.07;3.30;;;;;;;15.08;49.05;98991.75;8285916;28;20201;-69
2021/10/23 08:27:58;;;;;;;7.33;2.90;;;;;;;14.77;49.20;98997.50;8285668;28;20209;-66
2021/10/23 08:32:00;;;;;;;6.27;2.83;;;;;;;14.27;49.92;99001.41;8285670;28;20249;-67
2021/10/23 08:36:04;;;;;;;6.60;3.07;;;;;;;14.50;49.90;99003.00;8285621;28;20220;-69
2021/10/23 08:40:10;;;;;;;8.07;3.50;;;;;;;14.39;50.51;99005.22;8285639;28;20390;-68
2021/10/23 08:44:15;;;;;;;7.37;3.57;;;;;;;14.33;51.29;99000.28;8285121;28;20530;-69
2021/10/23 08:48:18;;;;;;;6.07;2.90;;;;;;;14.28;50.84;99026.56;8285155;28;20202;-69
2021/10/23 08:52:25;;;;;;;11.63;3.27;;;;;;;14.22;50.88;99014.63;8285505;28;20236;-70
2021/10/23 08:56:29;;;;;;;8.13;3.00;;;;;;;15.16;47.55;99026.16;8284825;28;20208;-69
2021/10/23 09:00:32;;;;;;;8.20;3.23;;;;;;;15.55;46.90;99038.25;8285053;28;20206;-67
2021/10/23 09:04:35;;;;;;;9.73;2.57;;;;;;;15.93;44.08;99026.91;8284548;28;20241;-67
2021/10/23 09:08:38;;;;;;;10.40;2.93;;;;;;;16.56;43.43;99016.72;8284664;28;20245;-67
2021/10/23 09:12:43;;;;;;;7.83;3.07;;;;;;;17.03;43.09;99023.00;8284623;28;20225;-67
2021/10/23 09:16:46;;;;;;;7.10;2.73;;;;;;;17.77;40.38;99022.38;8285034;28;20202;-67
2021/10/23 09:20:49;;;;;;;7.23;2.50;;;;;;;18.07;39.31;99021.56;8284722;28;20272;-67
2021/10/23 09:24:53;;;;;;;8.73;2.90;;;;;;;18.37;38.50;99015.44;8284441;28;20201;-67
2021/10/23 09:29:15;;;;;;;9.50;2.30;;;;;;;18.66;37.80;99020.72;8284414;28;20209;-67
2021/10/23 09:33:20;;;;;;;7.37;2.70;;;;;;;18.92;36.73;99013.88;8284616;28;20407;-67
2021/10/23 09:37:23;;;;;;;9.67;2.57;;;;;;;19.31;35.94;99013.19;8284514;28;20432;-67
2021/10/23 09:41:26;;;;;;;8.27;2.80;;;;;;;19.43;36.14;99027.31;8284398;28;20205;-67
2021/10/23 09:45:30;;;;;;;7.67;2.80;;;;;;;18.04;38.14;99032.22;8284034;28;20208;-67
2021/10/23 09:49:33;;;;;;;6.53;2.60;;;;;;;17.37;38.57;99034.25;8284090;28;20202;-67
2021/10/23 09:53:37;;;;;;;7.63;2.60;;;;;;;17.10;39.48;99041.84;8284102;28;20458;-67
2021/10/23 09:57:39;;;;;;;7.47;2.70;;;;;;;17.15;40.28;99037.19;8284241;28;20208;-67
2021/10/23 10:01:45;;;;;;;6.67;2.23;;;;;;;17.00;39.33;99034.47;8282928;28;20206;-67
2021/10/23 10:05:52;;;;;;;7.27;2.80;;;;;;;16.93;39.45;99035.72;8282861;28;20238;-67
2021/10/23 10:09:55;;;;;;;8.33;2.70;;;;;;;18.07;38.34;99039.09;8281684;28;21231;-67
2021/10/23 10:13:58;;;;;;;7.73;2.70;;;;;;;17.55;38.33;99042.84;8282769;28;20201;-67
2021/10/23 10:18:06;;;;;;;6.63;2.37;;;;;;;17.29;38.65;99055.63;8282921;28;20194;-67
2021/10/23 10:22:09;;;;;;;6.87;2.07;;;;;;;17.31;38.23;99061.59;8284163;28;20198;-67
2021/10/23 10:26:33;;;;;;;5.90;2.20;;;;;;;17.52;38.06;99050.88;8289095;28;20198;-67
2021/10/23 10:30:38;;;;;;;6.17;2.30;;;;;;;18.02;36.84;99057.69;8288543;28;20225;-68
2021/10/23 10:39:50;;;;;;;7.30;2.10;;;;;;;17.90;37.58;99061.84;8286633;28;20201;-68
2021/10/23 10:44:17;;;;;;;9.10;2.40;;;;;;;18.71;36.84;99056.22;8287017;28;20496;-68
2021/10/23 10:48:21;;;;;;;11.67;2.63;;;;;;;18.11;35.32;99051.06;8286333;28;20205;-68
2021/10/23 10:53:04;;;;;;;17.27;3.20;;;;;;;17.84;36.19;99048.22;8286410;28;20222;-68
2021/10/23 10:57:08;;;;;;;10.47;2.20;;;;;;;17.34;36.82;99057.97;8286162;28;20194;-68
2021/10/23 11:01:16;;;;;;;6.83;2.20;;;;;;;16.67;37.75;99055.38;8287712;28;20214;-69
2021/10/23 11:05:22;;;;;;;7.70;2.00;;;;;;;16.60;38.73;99049.63;8287138;28;20245;-69
2021/10/23 11:09:42;;;;;;;5.23;2.23;;;;;;;16.53;38.86;99060.50;8287081;28;20213;-69
2021/10/23 11:13:48;;;;;;;7.83;2.17;;;;;;;16.61;39.44;99056.53;8286621;28;20217;-68
2021/10/23 11:17:53;;;;;;;7.03;2.13;;;;;;;16.60;37.95;99065.31;8287734;28;20515;-69
2021/10/23 11:21:57;;;;;;;5.30;1.47;;;;;;;17.17;37.21;99057.13;8288209;28;20395;-69
2021/10/23 11:26:05;;;;;;;7.57;2.10;;;;;;;17.37;36.52;99052.56;8287857;28;20388;-68
2021/10/23 11:30:19;;;;;;;5.50;2.00;;;;;;;16.84;36.03;99049.28;8287916;28;20391;-69
2021/10/23 11:34:23;;;;;;;5.13;1.80;;;;;;;16.40;36.73;99040.19;8286699;28;20206;-68
2021/10/23 11:38:28;;;;;;;7.37;1.97;;;;;;;16.32;35.74;99034.50;8287607;28;20209;-68
2021/10/23 11:42:32;;;;;;;5.17;1.70;;;;;;;16.48;37.30;99031.09;8287421;28;20197;-68
2021/10/23 11:46:38;;;;;;;7.40;2.03;;;;;;;16.26;36.86;99041.81;8287221;28;20209;-69
2021/10/23 11:50:43;;;;;;;7.03;2.00;;;;;;;15.90;37.28;99053.19;8287205;28;20238;-69
2021/10/23 11:54:47;;;;;;;5.60;1.80;;;;;;;15.93;37.47;99058.25;8286926;28;20221;-69
2021/10/23 11:58:54;;;;;;;5.23;2.00;;;;;;;15.78;38.28;99057.22;8286652;28;20273;-69
2021/10/23 12:03:01;;;;;;;5.77;1.77;;;;;;;15.94;38.11;99063.41;8286368;28;20202;-69
2021/10/23 12:07:04;;;;;;;4.83;1.90;;;;;;;16.02;38.29;99068.25;8286413;28;20248;-69
2021/10/23 12:11:09;;;;;;;6.53;2.30;;;;;;;16.17;38.84;99058.81;8286423;28;20237;-69
2021/10/23 12:15:16;;;;;;;7.10;2.10;;;;;;;15.98;38.62;99057.09;8286274;28;20202;-69
2021/10/23 12:19:22;;;;;;;5.23;2.10;;;;;;;16.54;39.10;99060.38;8286163;28;20217;-69
2021/10/23 12:23:50;;;;;;;9.47;2.00;;;;;;;17.05;37.16;99054.31;8286077;28;20210;-69
2021/10/23 12:27:59;;;;;;;4.83;2.20;;;;;;;16.88;37.98;99057.81;8286278;28;20200;-69
2021/10/23 12:32:05;;;;;;;6.50;2.43;;;;;;;16.84;37.72;99051.91;8285998;28;20416;-69
2021/10/23 12:36:16;;;;;;;4.43;1.90;;;;;;;16.84;36.72;99046.69;8285682;28;20202;-69
2021/10/23 12:40:28;;;;;;;3.87;1.80;;;;;;;16.67;37.49;99054.53;8284834;28;20485;-70
2021/10/23 12:44:31;;;;;;;6.57;1.87;;;;;;;16.48;37.46;99054.63;8285401;28;20277;-69
2021/10/23 12:48:34;;;;;;;5.03;1.83;;;;;;;16.28;37.51;99048.66;8285329;28;20534;-69
2021/10/23 12:52:41;;;;;;;7.70;2.23;;;;;;;16.30;38.18;99056.44;8285194;28;20276;-69
2021/10/23 12:56:44;;;;;;;13.10;2.50;;;;;;;16.18;38.21;99052.63;8285322;28;20224;-69
2021/10/23 13:00:48;;;;;;;5.30;2.07;;;;;;;16.13;38.43;99052.88;8284642;28;20202;-69
2021/10/23 13:04:51;;;;;;;5.03;1.90;;;;;;;16.32;38.84;99050.19;8284336;28;20224;-69
2021/10/23 13:08:55;;;;;;;5.03;1.90;;;;;;;15.76;37.86;99057.31;8284470;28;20228;-70
2021/10/23 13:12:58;;;;;;;4.13;2.00;;;;;;;16.48;37.19;99058.09;8284086;28;20278;-69
2021/10/23 13:17:01;;;;;;;6.03;2.03;;;;;;;16.67;36.30;99046.69;8281537;28;20206;-69
2021/10/23 13:21:04;;;;;;;5.67;2.27;;;;;;;17.03;37.38;99048.31;8284044;28;20198;-69
2021/10/23 13:25:14;;;;;;;5.83;1.87;;;;;;;16.68;37.78;99046.63;8283951;28;20256;-69
2021/10/23 13:29:17;;;;;;;6.40;2.00;;;;;;;16.25;37.58;99047.97;8283639;28;20189;-69
2021/10/23 13:33:20;;;;;;;6.27;2.10;;;;;;;16.04;38.22;99048.09;8281049;28;20221;-69
2021/10/23 13:37:28;;;;;;;7.03;2.23;;;;;;;16.11;38.51;99052.13;8283795;28;20383;-69
2021/10/23 13:41:33;;;;;;;7.33;2.30;;;;;;;15.94;38.79;99049.50;8283741;28;20193;-69
2021/10/23 13:45:35;;;;;;;8.10;2.73;;;;;;;15.79;40.19;99054.53;8284048;28;20212;-69
2021/10/23 13:49:39;;;;;;;9.90;2.30;;;;;;;15.68;39.89;99054.16;8284292;28;20536;-69
2021/10/23 13:53:42;;;;;;;6.90;2.17;;;;;;;15.45;40.57;99058.72;8284239;28;20229;-69
2021/10/23 13:57:47;;;;;;;12.37;2.30;;;;;;;15.68;39.90;99053.34;8288484;28;20202;-69
2021/10/23 14:01:50;;;;;;;5.03;2.37;;;;;;;15.57;40.29;99066.88;8290247;28;20209;-69
2021/10/23 14:05:53;;;;;;;5.60;2.43;;;;;;;15.61;40.47;99073.66;8290087;28;20234;-69
2021/10/23 14:09:56;;;;;;;6.13;2.60;;;;;;;15.53;40.22;99066.19;8290026;28;20213;-69
2021/10/23 14:14:01;;;;;;;9.27;2.70;;;;;;;15.42;40.99;99066.72;8290156;28;20229;-69
2021/10/23 14:18:04;;;;;;;5.63;2.30;;;;;;;15.43;40.56;99071.00;8290084;28;20218;-68
2021/10/23 14:22:10;;;;;;;9.07;2.63;;;;;;;15.42;41.28;99071.94;8289963;28;20205;-68
2021/10/23 14:26:14;;;;;;;20.67;3.20;;;;;;;15.53;46.28;99071.41;8289066;28;20194;-68
2021/10/23 14:30:18;;;;;;;9.10;2.77;;;;;;;15.69;48.01;99070.69;8289282;28;20208;-67
2021/10/23 14:34:21;;;;;;;10.57;2.53;;;;;;;15.66;41.88;99076.06;8289514;28;20237;-68
2021/10/23 14:38:24;;;;;;;43.27;4.70;;;;;;;16.01;44.46;99082.22;8289298;28;20225;-68
2021/10/23 14:42:27;;;;;;;38.37;4.53;;;;;;;16.29;46.15;99086.94;8289172;28;20512;-66
2021/10/23 14:46:32;;;;;;;53.63;5.17;;;;;;;16.49;44.90;99078.09;8288808;28;20202;-68
2021/10/23 14:50:35;;;;;;;22.27;3.80;;;;;;;16.80;43.29;99063.44;8289107;28;20277;-70
2021/10/23 14:54:38;;;;;;;27.10;4.00;;;;;;;16.13;40.95;99070.34;8288176;28;20228;-70
2021/10/23 14:58:43;;;;;;;7.17;3.07;;;;;;;15.81;41.40;99078.81;8287134;28;20201;-71
2021/10/23 15:02:47;;;;;;;6.30;2.37;;;;;;;15.70;42.09;99086.28;8288175;28;20202;-70
2021/10/23 15:06:51;;;;;;;6.33;2.53;;;;;;;15.43;42.21;99086.66;8287569;28;20237;-70
2021/10/23 15:10:55;;;;;;;8.77;2.60;;;;;;;15.48;42.70;99099.50;8286375;28;20212;-70
2021/10/23 15:14:58;;;;;;;8.57;2.40;;;;;;;15.50;43.20;99100.28;8286360;28;20233;-70
2021/10/23 15:19:05;;;;;;;8.37;2.57;;;;;;;15.35;42.68;99093.16;8286250;28;20388;-70
2021/10/23 15:23:08;;;;;;;9.93;2.80;;;;;;;15.32;42.74;99093.28;8285828;28;20203;-70
2021/10/23 15:27:11;;;;;;;7.10;2.47;;;;;;;14.97;43.03;99103.56;8285832;28;20202;-70
2021/10/23 15:31:20;;;;;;;8.93;2.57;;;;;;;15.06;43.08;99100.56;8286051;28;20202;-70
2021/10/23 15:35:29;;;;;;;7.53;2.60;;;;;;;14.93;43.58;99094.19;8285862;28;20226;-70
2021/10/23 15:39:39;;;;;;;8.53;2.60;;;;;;;14.83;44.06;99099.81;8285713;28;20201;-70
2021/10/23 15:43:42;;;;;;;26.80;3.73;;;;;;;14.74;44.20;99115.84;8285584;28;20493;-70
2021/10/23 15:47:45;;;;;;;12.73;2.73;;;;;;;14.66;44.66;99113.56;8285534;28;20198;-70
2021/10/23 15:51:49;;;;;;;9.03;2.50;;;;;;;14.63;45.23;99115.44;8285292;28;20342;-70
2021/10/23 15:55:52;;;;;;;6.83;2.40;;;;;;;14.52;45.48;99117.63;8285472;28;20206;-70
2021/10/23 15:59:55;;;;;;;8.60;3.00;;;;;;;14.39;45.86;99112.06;8285062;28;20202;-70
2021/10/23 16:03:59;;;;;;;6.97;3.33;;;;;;;14.39;46.89;99119.88;8285145;28;20197;-70
2021/10/23 16:08:05;;;;;;;10.13;4.90;;;;;;;14.22;47.15;99121.47;8244825;28;1148812;-72
2021/10/23 16:12:08;;;;;;;29.13;21.20;;;;;;;14.23;47.97;99133.56;8285866;28;20194;-71
2021/10/23 16:16:11;;;;;;;26.13;17.70;;;;;;;14.14;47.91;99133.09;8285214;28;20194;-71
2021/10/23 16:20:14;;;;;;;17.63;8.87;;;;;;;14.11;47.80;99139.28;8285003;28;20197;-71
2021/10/23 16:24:19;;;;;;;12.30;5.57;;;;;;;14.04;47.93;99138.66;8286093;28;20500;-71
2021/10/23 16:28:22;;;;;;;15.63;5.30;;;;;;;13.96;48.84;99142.50;8285764;28;20208;-71
2021/10/23 16:32:25;;;;;;;9.37;3.53;;;;;;;13.88;48.47;99137.59;8285368;28;20233;-70
2021/10/23 16:36:28;;;;;;;6.97;2.90;;;;;;;13.83;48.57;99144.72;8285668;28;20202;-70
2021/10/23 16:40:32;;;;;;;7.80;3.10;;;;;;;13.68;49.26;99141.78;8285733;28;20208;-70
2021/10/23 16:44:38;;;;;;;8.57;4.63;;;;;;;13.60;49.63;99148.22;8285084;28;20206;-70
2021/10/23 16:48:41;;;;;;;9.13;4.70;;;;;;;13.46;49.66;99146.97;8285383;28;20213;-70
2021/10/23 16:52:44;;;;;;;9.53;5.57;;;;;;;13.40;49.63;99147.22;8284609;28;20252;-70
2021/10/23 16:56:48;;;;;;;10.63;6.90;;;;;;;13.35;49.92;99151.72;8285003;28;20202;-69
2021/10/23 17:00:51;;;;;;;13.37;7.20;;;;;;;13.35;49.95;99151.72;8284908;28;20512;-70
2021/10/23 17:04:54;;;;;;;86.20;55.73;;;;;;;13.33;50.29;99157.88;8252607;28;20229;-70
2021/10/23 17:08:57;;;;;;;35.00;22.30;;;;;;;13.20;50.55;99158.28;8277877;28;20244;-71
2021/10/23 17:13:02;;;;;;;52.53;33.10;;;;;;;13.08;50.46;99157.00;8284754;28;20229;-69
2021/10/23 17:17:05;;;;;;;51.43;35.30;;;;;;;13.04;50.70;99164.94;8284814;28;20201;-70
2021/10/23 17:21:08;;;;;;;22.27;15.90;;;;;;;12.94;50.74;99163.56;8284369;28;20265;-69
2021/10/23 17:25:11;;;;;;;31.17;20.13;;;;;;;12.83;51.25;99169.13;8284148;28;20229;-69
2021/10/23 17:29:16;;;;;;;18.07;12.47;;;;;;;12.86;51.16;99174.25;8283457;28;20220;-70
2021/10/23 17:33:19;;;;;;;18.63;11.23;;;;;;;12.81;50.88;99171.81;8283323;28;20438;-69
2021/10/23 17:37:22;;;;;;;13.13;7.40;;;;;;;12.74;50.83;99172.91;8284362;28;20213;-70
2021/10/23 17:41:25;;;;;;;14.33;7.57;;;;;;;12.59;50.82;99181.22;8284478;28;20205;-69
2021/10/23 17:45:31;;;;;;;21.30;16.03;;;;;;;12.57;51.28;99181.28;8284236;28;20212;-70
2021/10/23 17:49:39;;;;;;;28.60;22.13;;;;;;;12.58;50.80;99184.72;8281268;28;20388;-70
2021/10/23 17:53:42;;;;;;;24.17;20.73;;;;;;;12.39;51.10;99174.91;8283097;28;20328;-69
2021/10/23 17:57:45;;;;;;;28.40;23.43;;;;;;;12.35;51.06;99173.31;8283053;28;20197;-69
2021/10/23 18:01:49;;;;;;;33.27;27.83;;;;;;;12.34;51.29;99179.44;8283131;28;20205;-69
2021/10/23 18:05:53;;;;;;;33.77;22.70;;;;;;;12.27;51.29;99183.13;8282911;28;20412;-69
2021/10/23 18:09:56;;;;;;;18.43;11.40;;;;;;;12.22;51.36;99185.88;8280619;28;20599;-70
2021/10/23 18:14:00;;;;;;;10.87;7.07;;;;;;;12.08;51.22;99194.06;8282712;28;20228;-69
2021/10/23 18:18:09;;;;;;;13.63;6.03;;;;;;;12.04;50.94;99189.03;8280679;28;20194;-70
2021/10/23 18:22:12;;;;;;;10.43;5.90;;;;;;;11.68;51.83;99194.38;8283878;28;20202;-75
2021/10/23 18:26:15;;;;;;;11.80;7.10;;;;;;;11.89;51.77;99195.50;8283711;28;20244;-71
2021/10/23 18:30:18;;;;;;;14.47;9.87;;;;;;;11.85;51.80;99189.53;8283638;28;20395;-70
2021/10/23 18:34:22;;;;;;;17.03;10.13;;;;;;;11.88;51.86;99204.16;8283019;28;20229;-71
2021/10/23 18:38:25;;;;;;;15.30;9.60;;;;;;;12.37;49.92;99196.66;8281410;28;20430;-69
2021/10/23 18:42:28;;;;;;;16.97;10.00;;;;;;;11.85;51.18;99186.94;8284544;28;20198;-69
2021/10/23 18:46:31;;;;;;;13.20;7.77;;;;;;;11.77;51.00;99178.56;8288324;28;20202;-69
2021/10/23 18:50:36;;;;;;;14.50;8.03;;;;;;;11.78;51.49;99189.78;8288292;28;20198;-69
2021/10/23 18:54:39;;;;;;;13.40;5.87;;;;;;;11.73;51.66;99185.56;8287417;28;20244;-69
2021/10/23 18:58:44;;;;;;;11.90;7.20;;;;;;;11.67;51.31;99179.69;8287797;28;20206;-69
2021/10/23 19:02:47;;;;;;;11.43;7.37;;;;;;;11.59;51.33;99189.47;8285294;28;20197;-71
2021/10/23 19:06:53;;;;;;;13.60;7.63;;;;;;;11.37;51.75;99177.13;8287761;28;20229;-71
2021/10/23 19:10:56;;;;;;;9.77;6.63;;;;;;;11.44;51.39;99178.66;8287682;28;20198;-71
2021/10/23 19:14:59;;;;;;;11.97;6.67;;;;;;;11.43;51.16;99178.69;8287503;28;20218;-71